Nyesville, Indiana
Current Conditions -  °F | °C
As of 10:15 AM on Saturday 20 Dec 2014 (Local Time) from K4I7 Reporting Station
Overcast Overcast  
Wind Chill: 30°   Ceiling: 3000
Heat Index: 30°   Visibility: 7mi
Dew Point: 23°   Wind: 3mph
Humidity: 75%   Direction: 100°E
Pressure: 30.3"   Gusts: NA
Location:  39.7714°N, 87.1705°W
Report Text: K4I7 201515Z AUTO 10003KT 7SM BKN030 OVC065 M01/M05 A3030 RMK AO2
Loading
Personal Weather Stations






























Interactive Weather Map New forecast layout! Learn more

10-Day Weather Forecast

Advertisements
Track Severe Weather on mobile